Bellevue, WA

12:24 AM PDT on August 28, 2014 (GMT -0700)
Bellevue - Downtown Park | Change Station
CLOSE
Current Station
Personal Weather Station
Location: Bellevue, WA
Elevation: 100 ft
Nearby Weather Stations

Elev 100 ft 47.61 °N, 122.20 °W | Updated 11 seconds ago

Partly Cloudy
Partly Cloudy
66.7 °F
Feels Like 66.7 °F
N
1.0
Wind Variable Wind from NE
Gusts 1.0 mph

Today
High -- | Low -- °F
--% Chance of Precip.
Yesterday
High -- | Low -- °F
Precip. -- in
6:22 AM 7:56 PM
Waxing Crescent, 7% visible
Pressure 30.03 in
Visibility 10.0 miles
Clouds Scattered Clouds 7000 ft
Dew Point 58 °F
Humidity 73%
Rainfall 0.00 in
Snow Depth Not available.
UV 0 out of 12
Pollen 3.80 out of 12
Air Quality Not available.
Flu Activity Not available.
METAR KBFI 280653Z AUTO 11004KT 10SM SCT070 23/12 A3002 RMK AO2 SLP167 T02280122 TSNO

More Conditions Fewer Conditions

Pressure 30.03 in
Visibility 10.0 miles
Clouds Scattered Clouds 7000 ft
Dew Point 58 °F
Humidity 73%
Rainfall 0.00 in
Snow Depth Not available.
UV 0 out of 12
Pollen 3.80 out of 12
Air Quality Not available.
Flu Activity Not available.
METAR KBFI 280653Z AUTO 11004KT 10SM SCT070 23/12 A3002 RMK AO2 SLP167 T02280122 TSNO

More Conditions Fewer Conditions

10-Day Weather Forecast

Almanac

Astronomy

Aug. 28, 2014 Rise Set
Actual Time 6:22 AM PDT 7:56 PM PDT
Civil Twilight 5:49 AM PDT 8:29 PM PDT
Nautical Twilight 5:10 AM PDT 9:08 PM PDT
Astronomical Twilight 4:27 AM PDT 9:50 PM PDT
Moon 9:35 AM PDT 9:06 PM PDT
Length of Visible Light 14h 39m
Length of Day
13h 34m
Tomorrow will be 3m 18s shorter.
Waxing Crescent, 7% of the Moon is Illuminated
Today
Waxing Crescent
Sep 2
First Quarter
Sep 8
Full
Sep 15
Last Quarter
Sep 24
New

Community

WunderPhotos

Upload Photos

1,747,912 photos uploaded!

Nearby

Snow Depth

Station Depth Elevation
Alpine Meadows 0 in 3500 ft
Mount Gardner 0 in 3000 ft
Mount Crag 0 in 4050 ft
Meadows Pass 0 in 3500 ft
Dungeness 0 in 4100 ft

Earthquake Activity

City Distance Mag. Time & Date
No recent earthquake activity has been reported nearby.
Minimum magnitude displayed is 2.5.

Coastal Water Temperatures

Place Temperature
Port Townsend, WA 52.0 °F
Seattle, WA 55.9 °F
Friday Harbor, WA 53.1 °F
Tacoma, WA 55.0 °F

Nearby Weather Stations